Time;durP1;ratioP1;P1;durP2;ratioP2;P2;SDS_P1;SDS_P2;PMS_P1;PMS_P2;Temp;Humidity;BMP_temperature;BMP_pressure;BME280_temperature;BME280_humidity;BME280_pressure;Samples;Min_cycle;Max_cycle;Signal;HPM_P1;HPM_P2
2023/08/20 00:02:43;;;;;;;15.13;9.27;;;22.40;99.90;;;;;;5079933;28;20897;-71
2023/08/20 00:05:29;;;;;;;12.67;9.47;;;22.50;99.90;;;;;;5079300;28;20446;-72
2023/08/20 00:08:15;;;;;;;15.33;9.37;;;22.50;99.90;;;;;;5071706;28;20576;-71
2023/08/20 00:11:02;;;;;;;13.27;8.37;;;22.60;99.90;;;;;;5081638;28;20945;-71
2023/08/20 00:13:47;;;;;;;15.17;9.90;;;22.60;99.90;;;;;;5083084;28;20592;-71
2023/08/20 00:16:34;;;;;;;13.53;8.50;;;22.60;99.90;;;;;;5081435;28;20476;-72
2023/08/20 00:19:20;;;;;;;16.43;8.60;;;22.60;99.90;;;;;;5082821;28;20450;-71
2023/08/20 00:22:06;;;;;;;9.30;8.40;;;22.60;99.90;;;;;;5084202;28;20466;-72
2023/08/20 00:24:52;;;;;;;14.43;9.30;;;22.70;99.90;;;;;;5078983;28;20997;-71
2023/08/20 00:27:39;;;;;;;8.93;8.03;;;22.70;99.90;;;;;;5085027;28;20473;-71
2023/08/20 00:30:25;;;;;;;14.50;8.93;;;22.60;99.90;;;;;;5085416;28;20442;-71
2023/08/20 00:33:10;;;;;;;12.03;7.80;;;22.50;99.90;;;;;;5079676;28;20466;-71
2023/08/20 00:35:56;;;;;;;12.00;8.40;;;22.40;99.90;;;;;;5079099;28;20437;-71
2023/08/20 00:38:41;;;;;;;19.33;8.70;;;22.40;99.90;;;;;;5083724;28;20504;-71
2023/08/20 00:41:27;;;;;;;11.80;8.60;;;22.40;99.90;;;;;;5078304;28;20503;-71
2023/08/20 00:44:14;;;;;;;10.87;7.03;;;22.30;99.90;;;;;;5075766;28;21612;-71
2023/08/20 00:47:01;;;;;;;15.57;8.97;;;22.40;99.90;;;;;;5082027;28;21043;-71
2023/08/20 00:49:48;;;;;;;11.47;9.50;;;22.30;99.90;;;;;;5081283;28;20432;-71
2023/08/20 00:52:34;;;;;;;13.20;9.20;;;22.30;99.90;;;;;;5074592;28;20444;-70
2023/08/20 00:55:19;;;;;;;14.63;9.07;;;22.30;99.90;;;;;;5083126;28;20495;-71
2023/08/20 00:58:06;;;;;;;10.63;9.00;;;22.30;99.90;;;;;;5076818;28;20770;-70
2023/08/20 01:00:52;;;;;;;9.63;8.73;;;22.20;99.90;;;;;;5078322;28;22854;-70
2023/08/20 01:03:38;;;;;;;12.17;8.83;;;22.20;99.90;;;;;;5077898;28;20491;-71
2023/08/20 01:06:33;;;;;;;12.70;9.10;;;22.20;99.90;;;;;;5082772;28;20487;-71
2023/08/20 01:09:31;;;;;;;12.60;9.03;;;22.20;99.90;;;;;;5081788;28;20559;-71
2023/08/20 01:12:18;;;;;;;9.97;8.97;;;22.20;99.90;;;;;;5077370;28;21193;-71
2023/08/20 01:15:04;;;;;;;13.27;8.67;;;22.10;99.90;;;;;;5081869;28;20521;-71
2023/08/20 01:17:51;;;;;;;9.93;8.70;;;22.10;99.90;;;;;;5080394;28;20525;-71
2023/08/20 01:20:42;;;;;;;12.40;8.50;;;22.00;99.90;;;;;;5081661;28;20416;-71
2023/08/20 01:24:02;;;;;;;10.13;8.97;;;22.00;99.90;;;;;;5079185;28;20432;-71
2023/08/20 01:27:01;;;;;;;12.73;9.47;;;22.10;99.90;;;;;;5082113;28;20473;-71
2023/08/20 01:29:49;;;;;;;11.53;8.30;;;22.10;99.90;;;;;;5080110;28;20972;-71
2023/08/20 01:32:34;;;;;;;16.30;8.70;;;22.10;99.90;;;;;;5077066;28;20570;-71
2023/08/20 01:35:20;;;;;;;12.90;8.57;;;22.10;99.90;;;;;;5077144;28;20893;-70
2023/08/20 01:38:05;;;;;;;12.97;7.93;;;22.10;99.90;;;;;;5078479;28;20440;-71
2023/08/20 01:40:51;;;;;;;9.70;8.27;;;21.90;99.90;;;;;;5081288;28;20858;-71
2023/08/20 01:43:36;;;;;;;16.27;9.50;;;21.90;99.90;;;;;;5079501;28;20471;-71
2023/08/20 01:46:23;;;;;;;9.27;8.37;;;21.90;99.90;;;;;;5082783;28;20667;-71
2023/08/20 01:49:09;;;;;;;13.43;9.00;;;21.80;99.90;;;;;;5080205;28;21346;-71
2023/08/20 01:51:54;;;;;;;8.93;8.03;;;21.80;99.90;;;;;;5080589;28;20533;-71
2023/08/20 01:54:40;;;;;;;10.13;8.47;;;21.80;99.90;;;;;;5076264;28;20514;-71
2023/08/20 01:57:25;;;;;;;10.87;8.17;;;21.70;99.90;;;;;;5079573;28;20902;-70
2023/08/20 02:00:12;;;;;;;14.63;8.53;;;21.70;99.90;;;;;;5077998;28;20637;-71
2023/08/20 02:02:59;;;;;;;20.57;9.47;;;21.60;99.90;;;;;;5079087;28;20575;-71
2023/08/20 02:05:45;;;;;;;11.17;8.07;;;21.60;99.90;;;;;;5078168;28;20563;-70
2023/08/20 02:08:30;;;;;;;15.87;8.33;;;21.60;99.90;;;;;;5077834;28;20821;-71
2023/08/20 02:11:16;;;;;;;10.10;8.57;;;21.50;99.90;;;;;;5077340;28;20437;-70
2023/08/20 02:14:02;;;;;;;9.53;7.83;;;21.50;99.90;;;;;;5075972;28;20957;-70
2023/08/20 02:16:47;;;;;;;13.20;8.07;;;21.40;99.90;;;;;;5081202;28;20955;-71
2023/08/20 02:19:34;;;;;;;10.37;8.40;;;21.30;99.90;;;;;;5080273;28;20411;-70
2023/08/20 02:22:20;;;;;;;12.00;8.33;;;21.30;99.90;;;;;;5077835;28;20473;-70
2023/08/20 02:25:06;;;;;;;9.10;7.80;;;21.20;99.90;;;;;;5076448;28;20970;-70
2023/08/20 02:27:52;;;;;;;8.90;7.20;;;21.20;99.90;;;;;;5079060;28;20518;-71
2023/08/20 02:30:41;;;;;;;11.47;7.50;;;21.20;99.90;;;;;;5081113;28;20671;-70
2023/08/20 02:33:26;;;;;;;9.43;7.70;;;21.20;99.90;;;;;;5076304;28;20462;-70
2023/08/20 02:36:13;;;;;;;10.57;9.13;;;21.20;99.90;;;;;;5078936;28;20636;-71
2023/08/20 02:38:58;;;;;;;14.97;8.47;;;21.20;99.90;;;;;;5077414;28;20539;-70
2023/08/20 02:41:44;;;;;;;9.60;8.67;;;21.20;99.90;;;;;;5079662;28;20440;-71
2023/08/20 02:44:30;;;;;;;9.80;8.77;;;21.20;99.90;;;;;;5079425;28;20445;-70
2023/08/20 02:47:15;;;;;;;15.03;8.20;;;21.20;99.90;;;;;;5077396;28;20446;-71
2023/08/20 02:50:01;;;;;;;14.13;8.13;;;21.20;99.90;;;;;;5076906;28;20593;-71
2023/08/20 02:52:47;;;;;;;10.00;7.70;;;21.20;99.90;;;;;;5076585;28;20432;-70
2023/08/20 02:55:35;;;;;;;8.97;7.33;;;21.30;99.90;;;;;;5080213;28;21032;-70
2023/08/20 02:58:20;;;;;;;9.67;8.00;;;21.30;99.90;;;;;;5080745;28;20436;-70
2023/08/20 03:01:06;;;;;;;14.80;7.77;;;21.20;99.90;;;;;;5074987;28;20516;-71
2023/08/20 03:03:51;;;;;;;8.87;7.63;;;21.20;99.90;;;;;;5079862;28;20529;-71
2023/08/20 03:06:37;;;;;;;22.87;9.03;;;21.20;99.90;;;;;;5078883;28;20408;-70
2023/08/20 03:09:24;;;;;;;8.60;7.80;;;21.30;99.90;;;;;;5080368;28;20473;-70
2023/08/20 03:12:09;;;;;;;10.73;7.10;;;21.40;99.90;;;;;;5073771;28;20454;-71
2023/08/20 03:14:55;;;;;;;13.10;7.30;;;21.30;99.90;;;;;;5081675;28;20416;-71
2023/08/20 03:17:41;;;;;;;8.87;7.17;;;21.30;99.90;;;;;;5079902;28;20445;-70
2023/08/20 03:20:28;;;;;;;9.57;7.50;;;21.30;99.90;;;;;;5076009;28;20418;-70
2023/08/20 03:23:13;;;;;;;11.70;7.30;;;21.30;99.90;;;;;;5075471;28;20444;-71
2023/08/20 03:26:00;;;;;;;11.50;8.60;;;21.20;99.90;;;;;;5079409;28;20534;-70
2023/08/20 03:28:45;;;;;;;8.60;7.20;;;21.10;99.90;;;;;;5077675;28;20465;-71
2023/08/20 03:31:31;;;;;;;8.30;7.43;;;21.00;99.90;;;;;;5077789;28;21074;-70
2023/08/20 03:34:16;;;;;;;9.63;8.63;;;20.80;99.90;;;;;;5078306;28;20478;-71
2023/08/20 03:37:02;;;;;;;14.20;7.90;;;20.60;99.90;;;;;;5080781;28;20527;-70
2023/08/20 03:39:48;;;;;;;11.40;8.57;;;20.70;99.90;;;;;;5074457;28;20442;-70
2023/08/20 03:42:35;;;;;;;11.50;9.13;;;20.60;99.90;;;;;;5079929;28;20490;-71
2023/08/20 03:45:20;;;;;;;12.20;8.90;;;20.70;99.90;;;;;;5083818;28;20912;-71
2023/08/20 03:48:06;;;;;;;9.10;8.20;;;20.70;99.90;;;;;;5080734;28;22251;-71
2023/08/20 03:50:51;;;;;;;11.77;8.53;;;20.80;99.90;;;;;;5084092;28;20434;-71
2023/08/20 03:53:37;;;;;;;9.33;7.60;;;20.80;99.90;;;;;;5078768;28;20476;-71
2023/08/20 03:56:23;;;;;;;9.40;8.23;;;20.70;99.90;;;;;;5081527;28;20526;-71
2023/08/20 03:59:10;;;;;;;11.40;8.63;;;20.80;99.90;;;;;;5079928;28;20408;-71
2023/08/20 04:01:55;;;;;;;21.33;9.87;;;20.80;99.90;;;;;;5080570;28;20467;-71
2023/08/20 04:04:40;;;;;;;11.93;8.40;;;20.80;99.90;;;;;;5081494;28;20457;-71
2023/08/20 04:07:26;;;;;;;11.00;8.50;;;20.70;99.90;;;;;;5084135;28;20971;-71
2023/08/20 04:10:12;;;;;;;10.37;8.13;;;20.70;99.90;;;;;;5081335;28;20455;-71
2023/08/20 04:12:57;;;;;;;7.63;6.60;;;20.60;99.90;;;;;;5083406;28;20432;-71
2023/08/20 04:15:44;;;;;;;16.10;8.40;;;20.60;99.90;;;;;;5082411;28;21001;-71
2023/08/20 04:18:30;;;;;;;10.33;8.93;;;20.70;99.90;;;;;;5076180;28;20446;-71
2023/08/20 04:21:15;;;;;;;13.07;7.80;;;20.70;99.90;;;;;;5075913;28;20405;-70
2023/08/20 04:24:01;;;;;;;11.60;7.57;;;20.70;99.90;;;;;;5081302;28;20587;-70
2023/08/20 04:26:46;;;;;;;12.13;7.70;;;20.70;99.90;;;;;;5081795;28;21160;-70
2023/08/20 04:29:32;;;;;;;12.00;8.13;;;20.70;99.90;;;;;;5075675;28;20447;-70
2023/08/20 04:32:19;;;;;;;8.07;7.27;;;20.70;99.90;;;;;;5081205;28;20521;-71
2023/08/20 04:35:05;;;;;;;12.43;6.97;;;20.80;99.90;;;;;;5082053;28;20553;-70
2023/08/20 04:37:50;;;;;;;15.43;7.87;;;20.80;99.90;;;;;;5081782;28;20488;-71
2023/08/20 04:40:36;;;;;;;9.80;7.70;;;20.90;99.90;;;;;;5083434;28;20461;-71
2023/08/20 04:43:21;;;;;;;8.73;7.80;;;20.90;99.90;;;;;;5076543;28;20472;-71
2023/08/20 04:46:08;;;;;;;12.07;7.60;;;20.90;99.90;;;;;;5083190;28;20454;-71
2023/08/20 04:48:54;;;;;;;8.57;7.23;;;20.90;99.90;;;;;;5075954;28;20521;-70
2023/08/20 04:51:40;;;;;;;12.40;7.20;;;20.90;99.90;;;;;;5080214;28;20433;-71
2023/08/20 04:54:25;;;;;;;12.50;7.80;;;20.90;99.90;;;;;;5079257;28;20433;-71
2023/08/20 04:57:11;;;;;;;9.03;7.23;;;20.90;99.90;;;;;;5082572;28;20450;-70
2023/08/20 04:59:57;;;;;;;10.93;8.40;;;20.80;99.90;;;;;;5075286;28;20774;-70
2023/08/20 05:02:42;;;;;;;15.50;8.13;;;20.80;99.90;;;;;;5081356;28;22501;-70
2023/08/20 05:05:29;;;;;;;13.87;7.80;;;20.70;99.90;;;;;;5082155;28;20872;-71
2023/08/20 05:08:14;;;;;;;10.90;7.90;;;20.80;99.90;;;;;;5080393;28;20822;-71
2023/08/20 05:11:01;;;;;;;8.60;7.77;;;20.80;99.90;;;;;;5080718;28;20430;-70
2023/08/20 05:13:48;;;;;;;11.20;7.93;;;20.70;99.90;;;;;;5082019;28;20473;-71
2023/08/20 05:16:33;;;;;;;9.63;8.40;;;20.80;99.90;;;;;;5078669;28;20810;-70
2023/08/20 05:19:19;;;;;;;10.20;8.43;;;20.80;99.90;;;;;;5077422;28;20417;-71
2023/08/20 05:22:06;;;;;;;10.47;7.93;;;20.80;99.90;;;;;;5078817;28;20830;-71
2023/08/20 05:24:51;;;;;;;7.67;6.80;;;20.90;99.90;;;;;;5077084;28;20420;-71
2023/08/20 05:27:37;;;;;;;8.67;7.77;;;20.90;99.90;;;;;;5078376;28;20445;-71
2023/08/20 05:30:22;;;;;;;9.43;7.83;;;20.90;99.90;;;;;;5079283;28;20526;-70
2023/08/20 05:33:08;;;;;;;13.73;7.40;;;21.00;99.90;;;;;;5074537;28;20502;-71
2023/08/20 05:35:53;;;;;;;9.33;8.33;;;21.20;99.90;;;;;;5082207;28;20519;-71
2023/08/20 05:38:42;;;;;;;18.93;9.00;;;21.30;99.90;;;;;;5077157;28;20532;-71
2023/08/20 05:41:27;;;;;;;12.17;7.83;;;21.40;99.90;;;;;;5077493;28;20917;-71
2023/08/20 05:44:12;;;;;;;9.90;7.90;;;21.50;99.90;;;;;;5079310;28;20896;-71
2023/08/20 05:46:58;;;;;;;12.30;7.93;;;21.60;99.90;;;;;;5072807;28;20456;-70
2023/08/20 05:49:44;;;;;;;10.60;8.70;;;21.60;99.90;;;;;;5078692;28;20506;-70
2023/08/20 05:52:29;;;;;;;10.63;7.50;;;21.70;99.90;;;;;;5074400;28;20592;-70
2023/08/20 05:55:16;;;;;;;11.37;8.50;;;21.80;99.90;;;;;;5082882;28;20441;-71
2023/08/20 05:58:02;;;;;;;9.80;8.40;;;21.80;99.90;;;;;;5082918;28;20449;-71
2023/08/20 06:00:48;;;;;;;9.23;7.37;;;21.70;99.90;;;;;;5079384;28;21121;-71
2023/08/20 06:03:33;;;;;;;11.57;8.47;;;21.70;99.90;;;;;;5078715;28;20470;-70
2023/08/20 06:06:19;;;;;;;13.80;8.63;;;21.70;99.90;;;;;;5077232;28;20413;-71
2023/08/20 06:09:04;;;;;;;9.43;8.00;;;21.80;99.90;;;;;;5076892;28;20522;-71
2023/08/20 06:11:52;;;;;;;10.83;8.40;;;21.90;99.90;;;;;;5082514;28;20527;-71
2023/08/20 06:14:37;;;;;;;13.80;8.77;;;21.90;99.90;;;;;;5076173;28;20608;-71
2023/08/20 06:17:23;;;;;;;10.20;8.63;;;21.90;99.90;;;;;;5077758;28;20476;-71
2023/08/20 06:20:11;;;;;;;9.80;8.07;;;22.00;99.90;;;;;;5080764;28;20566;-70
2023/08/20 06:22:56;;;;;;;10.80;8.97;;;22.10;99.90;;;;;;5079373;28;20831;-71
2023/08/20 06:25:42;;;;;;;14.30;8.83;;;22.10;99.90;;;;;;5072675;28;20909;-70
2023/08/20 06:28:29;;;;;;;9.13;8.23;;;22.20;99.90;;;;;;5075403;28;20447;-71
2023/08/20 06:31:14;;;;;;;9.10;7.97;;;22.30;99.90;;;;;;5076469;28;20518;-71
2023/08/20 06:34:00;;;;;;;11.00;8.80;;;22.40;99.90;;;;;;5072397;28;20586;-71
2023/08/20 06:36:45;;;;;;;11.67;8.17;;;22.50;99.90;;;;;;5080185;28;21027;-70
2023/08/20 06:39:31;;;;;;;10.27;8.20;;;22.60;99.90;;;;;;5073024;28;20981;-71
2023/08/20 06:42:16;;;;;;;13.23;7.83;;;22.70;99.90;;;;;;5075618;28;20488;-71
2023/08/20 06:45:04;;;;;;;14.47;8.87;;;22.80;99.90;;;;;;5080363;28;20507;-70
2023/08/20 06:47:49;;;;;;;9.47;7.70;;;22.90;99.90;;;;;;5077149;28;20441;-71
2023/08/20 06:50:35;;;;;;;11.27;8.23;;;23.00;99.90;;;;;;5081806;28;20497;-71
2023/08/20 06:53:20;;;;;;;9.53;8.53;;;23.10;99.90;;;;;;5078083;28;21070;-71
2023/08/20 06:56:06;;;;;;;8.70;7.70;;;23.20;99.90;;;;;;5079733;28;20845;-71
2023/08/20 06:58:52;;;;;;;14.40;8.13;;;23.30;99.90;;;;;;5078740;28;20453;-71
2023/08/20 07:01:39;;;;;;;10.53;8.03;;;23.30;99.90;;;;;;5077976;28;20437;-71
2023/08/20 07:04:24;;;;;;;10.40;7.73;;;23.30;99.90;;;;;;5079815;28;20519;-71
2023/08/20 07:07:10;;;;;;;11.27;8.30;;;23.40;99.90;;;;;;5076590;28;20520;-71
2023/08/20 07:09:55;;;;;;;12.40;8.40;;;23.40;99.90;;;;;;5081453;28;20817;-71
2023/08/20 07:12:41;;;;;;;11.60;8.10;;;23.50;99.90;;;;;;5076854;28;20766;-71
2023/08/20 07:15:26;;;;;;;12.20;8.60;;;23.50;99.90;;;;;;5082858;28;20442;-71
2023/08/20 07:18:14;;;;;;;11.37;8.17;;;23.60;99.90;;;;;;5079953;28;20454;-71
2023/08/20 07:21:00;;;;;;;11.50;8.90;;;23.60;99.90;;;;;;5076855;28;21769;-71
2023/08/20 07:23:45;;;;;;;12.57;8.60;;;23.60;99.90;;;;;;5081588;28;21055;-71
2023/08/20 07:26:31;;;;;;;9.97;8.70;;;23.50;99.90;;;;;;5086000;28;20594;-71
2023/08/20 07:29:16;;;;;;;9.83;8.83;;;23.50;99.90;;;;;;5079037;28;20452;-71
2023/08/20 07:32:03;;;;;;;9.10;8.20;;;23.50;99.90;;;;;;5079975;28;20515;-71
2023/08/20 07:34:50;;;;;;;13.97;8.33;;;23.50;99.90;;;;;;5083213;28;20502;-71
2023/08/20 07:37:35;;;;;;;13.40;9.13;;;23.60;99.90;;;;;;5081432;28;20497;-71
2023/08/20 07:40:21;;;;;;;12.60;8.47;;;23.80;99.90;;;;;;5083634;28;20438;-71
2023/08/20 07:43:06;;;;;;;10.10;7.60;;;23.90;99.90;;;;;;5079158;28;20575;-71
2023/08/20 07:45:52;;;;;;;12.80;8.27;;;23.90;99.90;;;;;;5079434;28;20437;-71
2023/08/20 07:48:37;;;;;;;11.70;8.27;;;23.90;99.90;;;;;;5079657;28;20439;-71
2023/08/20 07:51:24;;;;;;;8.07;7.27;;;23.90;99.90;;;;;;5078512;28;20444;-71
2023/08/20 07:54:10;;;;;;;11.97;8.53;;;24.00;99.90;;;;;;5079839;28;20438;-71
2023/08/20 07:56:55;;;;;;;9.00;7.30;;;24.00;99.90;;;;;;5084826;28;20936;-71
2023/08/20 07:59:41;;;;;;;10.03;8.20;;;24.10;99.90;;;;;;5082428;28;20611;-71
2023/08/20 08:02:27;;;;;;;10.10;7.83;;;24.20;99.90;;;;;;5081308;28;20463;-71
2023/08/20 08:05:14;;;;;;;13.67;9.40;;;24.30;99.90;;;;;;5080592;28;20471;-71
2023/08/20 08:08:00;;;;;;;11.23;8.40;;;24.50;99.90;;;;;;5073399;28;20556;-71
2023/08/20 08:10:47;;;;;;;11.20;7.87;;;24.70;99.90;;;;;;5084376;28;20467;-71
2023/08/20 08:13:32;;;;;;;9.57;7.60;;;24.80;99.90;;;;;;5081559;28;20453;-71
2023/08/20 08:16:18;;;;;;;9.47;7.50;;;25.00;99.90;;;;;;5082337;28;20479;-71
2023/08/20 08:19:03;;;;;;;7.60;6.87;;;25.10;99.90;;;;;;5078002;28;20442;-71
2023/08/20 08:21:49;;;;;;;13.83;7.77;;;25.30;99.90;;;;;;5081928;28;20464;-71
2023/08/20 08:24:36;;;;;;;15.00;7.33;;;25.40;99.90;;;;;;5076190;28;20443;-71
2023/08/20 08:27:21;;;;;;;9.13;6.90;;;25.50;99.90;;;;;;5080631;28;21226;-71
2023/08/20 08:30:08;;;;;;;9.83;7.10;;;25.70;99.90;;;;;;5081411;28;20605;-71
2023/08/20 08:32:53;;;;;;;8.10;7.10;;;25.70;99.90;;;;;;5082063;28;20470;-71
2023/08/20 08:35:39;;;;;;;7.90;6.80;;;25.80;99.90;;;;;;5082794;28;20441;-71
2023/08/20 08:38:24;;;;;;;8.07;6.20;;;25.90;99.90;;;;;;5080845;28;20449;-71
2023/08/20 08:41:12;;;;;;;10.87;6.37;;;26.00;99.90;;;;;;5074528;28;20903;-71
2023/08/20 08:43:58;;;;;;;8.90;6.20;;;26.10;99.90;;;;;;5083090;28;20589;-71
2023/08/20 08:46:44;;;;;;;7.50;6.20;;;26.20;99.90;;;;;;5082409;28;20452;-71
2023/08/20 08:49:30;;;;;;;6.40;5.23;;;26.30;99.90;;;;;;5072649;28;20487;-71
2023/08/20 08:52:17;;;;;;;11.97;5.90;;;26.30;99.90;;;;;;5078163;28;20462;-71
2023/08/20 08:55:04;;;;;;;7.63;5.90;;;26.40;99.90;;;;;;5083788;28;20576;-71
2023/08/20 08:57:50;;;;;;;10.80;5.93;;;26.50;99.90;;;;;;5078267;28;20951;-71
2023/08/20 09:00:37;;;;;;;8.53;6.67;;;26.70;99.90;;;;;;5077861;28;22178;-71
2023/08/20 09:03:24;;;;;;;16.70;6.07;;;26.80;99.90;;;;;;5075028;28;20458;-71
2023/08/20 09:06:10;;;;;;;8.77;7.13;;;26.80;99.90;;;;;;5079830;28;21057;-71
2023/08/20 09:09:05;;;;;;;8.67;6.10;;;26.90;99.90;;;;;;5075871;28;20449;-71
2023/08/20 09:11:50;;;;;;;11.10;6.90;;;27.00;99.90;;;;;;5083342;28;20483;-71
2023/08/20 09:14:37;;;;;;;8.67;6.33;;;27.10;99.90;;;;;;5079849;28;21868;-71
2023/08/20 09:17:26;;;;;;;8.47;5.00;;;27.20;99.90;;;;;;5079182;28;20466;-71
2023/08/20 09:20:11;;;;;;;7.83;5.00;;;27.30;99.90;;;;;;5073537;28;21066;-71
2023/08/20 09:22:57;;;;;;;5.67;5.17;;;27.40;99.90;;;;;;5074976;28;21110;-71
2023/08/20 09:25:44;;;;;;;8.90;6.17;;;27.40;99.90;;;;;;5076918;28;21000;-71
2023/08/20 09:28:29;;;;;;;14.13;5.30;;;27.50;99.90;;;;;;5081496;28;20436;-71
2023/08/20 09:31:16;;;;;;;9.77;5.90;;;27.50;99.90;;;;;;5079461;28;20979;-71
2023/08/20 09:34:01;;;;;;;7.13;5.00;;;27.60;99.90;;;;;;5080888;28;20522;-71
2023/08/20 09:36:47;;;;;;;7.93;5.70;;;27.60;99.90;;;;;;5078235;28;20568;-71
2023/08/20 09:39:33;;;;;;;9.13;5.37;;;27.70;99.90;;;;;;5073297;28;20452;-71
2023/08/20 09:42:18;;;;;;;9.43;5.77;;;27.80;99.90;;;;;;5078401;28;20541;-71
2023/08/20 09:45:05;;;;;;;6.60;4.53;;;27.90;99.90;;;;;;5078982;28;20576;-71
2023/08/20 09:47:56;;;;;;;6.80;5.63;;;28.00;99.90;;;;;;5079336;28;20546;-71
2023/08/20 09:50:42;;;;;;;6.57;5.03;;;28.10;99.90;;;;;;5080644;28;20477;-71
2023/08/20 09:53:34;;;;;;;6.30;5.27;;;28.10;99.80;;;;;;5080807;28;20476;-71
2023/08/20 09:56:27;;;;;;;5.97;5.17;;;28.20;99.90;;;;;;5075613;28;20522;-71
2023/08/20 09:59:17;;;;;;;15.87;5.70;;;28.30;99.90;;;;;;5078031;28;21009;-73
2023/08/20 10:02:03;;;;;;;6.53;5.13;;;28.30;99.90;;;;;;5079651;28;20851;-70
2023/08/20 10:04:51;;;;;;;10.73;5.00;;;28.40;97.90;;;;;;5078734;28;20551;-70
2023/08/20 10:07:37;;;;;;;5.67;5.07;;;28.40;92.20;;;;;;5078495;28;20801;-70
2023/08/20 10:10:23;;;;;;;8.00;5.50;;;28.40;94.20;;;;;;5079727;28;21088;-72
2023/08/20 10:13:09;;;;;;;5.83;4.87;;;28.40;92.80;;;;;;5081363;28;20893;-72
2023/08/20 10:15:55;;;;;;;7.73;5.23;;;28.50;95.20;;;;;;5079244;28;20437;-72
2023/08/20 10:18:41;;;;;;;6.50;5.40;;;28.60;94.70;;;;;;5080767;28;20464;-71
2023/08/20 10:21:28;;;;;;;10.77;5.80;;;28.70;93.10;;;;;;5076405;28;21006;-71
2023/08/20 10:24:18;;;;;;;7.53;5.83;;;28.70;95.30;;;;;;5078903;28;20461;-71
2023/08/20 10:27:10;;;;;;;8.40;5.60;;;28.80;95.40;;;;;;5079057;28;20985;-71
2023/08/20 10:29:56;;;;;;;7.43;5.37;;;28.90;94.20;;;;;;5078672;28;20485;-71
2023/08/20 10:32:46;;;;;;;7.20;4.33;;;29.00;94.20;;;;;;5077702;28;20454;-72
2023/08/20 10:35:49;;;;;;;11.03;5.00;;;29.00;80.00;;;;;;5076014;28;20441;-72
2023/08/20 10:38:38;;;;;;;7.97;5.83;;;29.10;81.20;;;;;;5077364;28;20445;-72
2023/08/20 10:41:28;;;;;;;8.47;5.60;;;29.20;76.90;;;;;;5068240;28;20489;-72
2023/08/20 10:44:15;;;;;;;6.50;5.00;;;29.30;82.20;;;;;;5069982;28;20479;-71
2023/08/20 10:47:00;;;;;;;12.00;5.70;;;29.30;81.90;;;;;;5071349;28;20448;-71
2023/08/20 10:49:51;;;;;;;9.57;5.97;;;29.40;86.10;;;;;;5069151;28;21012;-72
2023/08/20 10:52:40;;;;;;;11.03;5.90;;;29.50;82.90;;;;;;5079806;28;20965;-72
2023/08/20 10:55:28;;;;;;;9.97;6.13;;;29.60;73.60;;;;;;5083855;28;20585;-72
2023/08/20 10:58:14;;;;;;;6.67;5.07;;;29.70;70.50;;;;;;5074077;28;20450;-72
2023/08/20 11:01:19;;;;;;;9.63;4.83;;;29.80;62.90;;;;;;5077910;28;20459;-72
2023/08/20 11:04:07;;;;;;;7.63;4.60;;;29.80;65.60;;;;;;5075203;28;21656;-72
2023/08/20 11:06:55;;;;;;;6.93;4.43;;;29.90;68.20;;;;;;5074742;28;20445;-72
2023/08/20 11:09:40;;;;;;;7.60;4.70;;;29.90;64.70;;;;;;5074231;28;20443;-72
2023/08/20 11:12:29;;;;;;;10.80;5.10;;;30.00;52.70;;;;;;5075258;28;20488;-72
2023/08/20 11:15:15;;;;;;;8.40;4.50;;;30.10;52.90;;;;;;5083619;28;20563;-72
2023/08/20 11:18:02;;;;;;;7.90;4.63;;;30.20;50.10;;;;;;5088010;28;20475;-72
2023/08/20 11:20:47;;;;;;;5.20;4.07;;;30.20;51.20;;;;;;5080962;28;21241;-71
2023/08/20 11:23:33;;;;;;;7.57;5.17;;;30.20;38.20;;;;;;5081408;28;20461;-72
2023/08/20 11:26:19;;;;;;;7.27;4.23;;;30.30;37.80;;;;;;5083692;28;20442;-71
2023/08/20 11:29:08;;;;;;;7.63;4.20;;;30.40;37.10;;;;;;5086220;28;20955;-71
2023/08/20 11:31:53;;;;;;;6.33;3.70;;;30.40;38.30;;;;;;5088151;28;20481;-72
2023/08/20 11:34:39;;;;;;;5.77;3.63;;;30.40;36.80;;;;;;5083186;28;20536;-72
2023/08/20 11:37:25;;;;;;;6.90;4.33;;;30.40;31.70;;;;;;5086650;28;20796;-72
2023/08/20 11:40:10;;;;;;;10.70;5.47;;;30.50;39.60;;;;;;5087058;28;20540;-72
2023/08/20 11:42:56;;;;;;;4.67;3.57;;;30.50;36.60;;;;;;5087014;28;20470;-72
2023/08/20 11:45:48;;;;;;;5.70;4.50;;;30.60;41.40;;;;;;5080717;28;20448;-71
2023/08/20 11:48:36;;;;;;;7.70;4.03;;;30.70;35.70;;;;;;5084752;28;20604;-72
2023/08/20 11:51:22;;;;;;;9.23;5.20;;;30.80;38.60;;;;;;5080938;28;21034;-71
2023/08/20 11:54:09;;;;;;;6.33;4.43;;;30.80;40.40;;;;;;5083303;28;20438;-72
2023/08/20 11:57:03;;;;;;;10.50;4.47;;;30.80;33.40;;;;;;5086100;28;20584;-71
2023/08/20 11:59:48;;;;;;;8.20;3.60;;;30.90;32.50;;;;;;5089278;28;20458;-72
2023/08/20 12:02:35;;;;;;;6.37;3.87;;;30.80;29.70;;;;;;5086387;28;20459;-72
2023/08/20 12:05:21;;;;;;;9.03;3.73;;;30.80;32.00;;;;;;5077822;28;21030;-71
2023/08/20 12:08:06;;;;;;;6.07;4.57;;;30.90;37.10;;;;;;5082100;28;21042;-72
2023/08/20 12:10:51;;;;;;;8.20;3.93;;;30.90;33.10;;;;;;5086421;28;20926;-71
2023/08/20 12:13:37;;;;;;;5.60;3.40;;;30.90;37.60;;;;;;5080656;28;20991;-72
2023/08/20 12:16:24;;;;;;;8.00;4.10;;;31.00;31.60;;;;;;5079672;28;20456;-72
2023/08/20 12:19:11;;;;;;;5.87;3.40;;;31.00;30.10;;;;;;5078864;28;20556;-72
2023/08/20 12:21:57;;;;;;;5.00;3.27;;;31.10;29.30;;;;;;5079052;28;20537;-71
2023/08/20 12:24:42;;;;;;;6.47;3.53;;;31.10;26.70;;;;;;5081236;28;20901;-72
2023/08/20 12:27:28;;;;;;;6.63;3.03;;;31.20;26.40;;;;;;5083087;28;20436;-71
2023/08/20 12:30:14;;;;;;;5.80;3.30;;;31.30;25.90;;;;;;5087064;28;20452;-72
2023/08/20 12:32:59;;;;;;;5.10;2.97;;;31.50;27.30;;;;;;5081809;28;20485;-72
2023/08/20 12:35:46;;;;;;;8.40;3.30;;;31.60;27.60;;;;;;5082556;28;20446;-71
2023/08/20 12:38:33;;;;;;;7.87;3.27;;;31.60;27.60;;;;;;5086371;28;20452;-71
2023/08/20 12:41:19;;;;;;;7.97;3.67;;;31.80;25.90;;;;;;5080979;28;20435;-71
2023/08/20 12:44:06;;;;;;;5.00;3.50;;;31.90;25.40;;;;;;5081573;28;20553;-71
2023/08/20 12:46:51;;;;;;;7.43;4.67;;;32.00;27.20;;;;;;5082989;28;20453;-71
2023/08/20 12:49:37;;;;;;;7.83;4.60;;;32.00;27.30;;;;;;5081271;28;20522;-71
2023/08/20 12:52:24;;;;;;;6.47;3.83;;;32.00;26.80;;;;;;5082865;28;20479;-71
2023/08/20 12:55:10;;;;;;;20.00;5.23;;;32.10;26.60;;;;;;5084478;28;20500;-71
2023/08/20 12:57:57;;;;;;;7.10;3.90;;;32.20;27.40;;;;;;5085593;28;20461;-71
2023/08/20 13:00:42;;;;;;;6.00;3.90;;;32.20;25.30;;;;;;5087780;28;20446;-71
2023/08/20 13:03:28;;;;;;;6.53;3.77;;;32.20;24.70;;;;;;5083200;28;20986;-70
2023/08/20 13:06:14;;;;;;;9.47;3.60;;;32.20;25.00;;;;;;5083508;28;20487;-71
2023/08/20 13:09:03;;;;;;;6.13;4.10;;;32.30;26.50;;;;;;5085034;28;20457;-71
2023/08/20 13:11:50;;;;;;;5.87;3.17;;;32.40;26.80;;;;;;5080383;28;20492;-71
2023/08/20 13:14:36;;;;;;;6.80;4.03;;;32.50;28.60;;;;;;5085025;28;20529;-71
2023/08/20 13:17:22;;;;;;;4.83;3.50;;;32.50;26.70;;;;;;5086849;28;20819;-71
2023/08/20 13:20:08;;;;;;;10.23;4.57;;;32.70;26.40;;;;;;5084243;28;20798;-71
2023/08/20 13:22:53;;;;;;;5.73;4.30;;;32.80;26.80;;;;;;5080232;28;20594;-72
2023/08/20 13:25:40;;;;;;;7.17;4.77;;;33.00;25.80;;;;;;5082677;28;20511;-71
2023/08/20 13:28:26;;;;;;;5.20;3.60;;;33.10;24.10;;;;;;5082556;28;20440;-71
2023/08/20 13:31:12;;;;;;;11.10;3.60;;;33.10;26.40;;;;;;5085500;28;20449;-72
2023/08/20 13:33:57;;;;;;;7.13;4.87;;;33.20;24.20;;;;;;5084527;28;20442;-71
2023/08/20 13:36:42;;;;;;;5.00;3.10;;;33.40;24.70;;;;;;5086848;28;20529;-72
2023/08/20 13:39:28;;;;;;;7.20;4.30;;;33.40;24.30;;;;;;5083274;28;21002;-71
2023/08/20 13:42:15;;;;;;;5.43;4.03;;;33.50;24.30;;;;;;5085456;28;20481;-71
2023/08/20 13:45:01;;;;;;;5.90;4.33;;;33.50;24.30;;;;;;5083819;28;20867;-71
2023/08/20 13:47:46;;;;;;;7.73;4.20;;;33.60;25.00;;;;;;5083726;28;20449;-71
2023/08/20 13:50:32;;;;;;;9.43;4.27;;;33.50;24.30;;;;;;5083825;28;20477;-71
2023/08/20 13:53:17;;;;;;;6.57;5.03;;;33.70;25.80;;;;;;5074843;28;21031;-71
2023/08/20 13:56:03;;;;;;;6.13;4.27;;;33.80;26.90;;;;;;5079959;28;21723;-71
2023/08/20 13:58:50;;;;;;;7.17;4.17;;;33.80;26.50;;;;;;5082667;28;20821;-72
2023/08/20 14:01:35;;;;;;;5.73;4.27;;;34.00;25.40;;;;;;5081557;28;20436;-71
2023/08/20 14:04:21;;;;;;;6.80;4.77;;;34.10;24.50;;;;;;5082456;28;20470;-71
2023/08/20 14:07:07;;;;;;;8.47;4.57;;;34.00;22.00;;;;;;5082784;28;20456;-72
2023/08/20 14:09:52;;;;;;;8.63;3.97;;;33.90;23.00;;;;;;5081852;28;20465;-71
2023/08/20 14:12:38;;;;;;;6.07;3.70;;;34.00;23.90;;;;;;5085410;28;21144;-72
2023/08/20 14:15:25;;;;;;;4.70;3.90;;;34.10;23.50;;;;;;5082142;28;20811;-71
2023/08/20 14:18:11;;;;;;;6.73;4.47;;;34.20;24.50;;;;;;5082153;28;20492;-71
2023/08/20 14:20:56;;;;;;;5.80;4.20;;;34.20;25.90;;;;;;5084298;28;20965;-72
2023/08/20 14:23:42;;;;;;;6.90;3.60;;;34.30;24.40;;;;;;5083955;28;20969;-72